createdAt,value
2022-08-28T00:01:50.890Z,2.47
2022-08-28T00:04:39.801Z,2.27
2022-08-28T00:07:28.713Z,5.03
2022-08-28T00:10:19.167Z,2.17
2022-08-28T00:13:08.853Z,2.53
2022-08-28T00:16:04.472Z,3.00
2022-08-28T00:18:54.677Z,4.00
2022-08-28T00:21:43.533Z,4.10
2022-08-28T00:24:32.458Z,3.47
2022-08-28T00:27:38.891Z,3.60
2022-08-28T00:30:29.109Z,3.33
2022-08-28T00:33:22.203Z,4.40
2022-08-28T00:36:12.431Z,4.23
2022-08-28T00:39:01.279Z,3.57
2022-08-28T00:41:50.659Z,3.37
2022-08-28T00:44:45.592Z,4.23
2022-08-28T00:47:34.977Z,3.60
2022-08-28T00:50:25.189Z,3.87
2022-08-28T00:53:14.398Z,3.50
2022-08-28T00:56:09.489Z,3.67
2022-08-28T00:59:05.276Z,4.30
2022-08-28T01:01:56.297Z,4.33
2022-08-28T01:04:45.635Z,4.30
2022-08-28T01:07:34.467Z,4.00
2022-08-28T01:10:25.744Z,4.70
2022-08-28T01:13:15.117Z,4.80
2022-08-28T01:16:04.480Z,4.67
2022-08-28T01:18:54.407Z,4.80
2022-08-28T01:21:45.867Z,5.23
2022-08-28T01:24:36.363Z,4.17
2022-08-28T01:27:25.185Z,4.10
2022-08-28T01:30:15.398Z,4.27
2022-08-28T01:33:04.293Z,4.40
2022-08-28T01:35:53.131Z,4.80
2022-08-28T01:38:42.838Z,5.00
2022-08-28T01:41:34.425Z,5.30
2022-08-28T01:44:25.736Z,4.97
2022-08-28T01:47:14.587Z,5.60
2022-08-28T01:50:03.760Z,5.10
2022-08-28T01:52:52.838Z,5.17
2022-08-28T01:55:41.979Z,4.27
2022-08-28T01:58:37.879Z,5.23
2022-08-28T02:01:27.050Z,4.40
2022-08-28T02:04:16.351Z,4.93
2022-08-28T02:07:05.407Z,5.00
2022-08-28T02:09:54.233Z,5.07
2022-08-28T02:12:43.766Z,5.10
2022-08-28T02:15:34.520Z,4.03
2022-08-28T02:18:23.407Z,4.50
2022-08-28T02:21:12.515Z,4.77
2022-08-28T02:24:01.896Z,4.50
2022-08-28T02:26:50.703Z,4.23
2022-08-28T02:29:39.827Z,4.90
2022-08-28T02:32:30.654Z,4.53
2022-08-28T02:35:20.159Z,4.87
2022-08-28T02:38:09.191Z,4.33
2022-08-28T02:40:58.055Z,4.57
2022-08-28T02:43:46.870Z,4.77
2022-08-28T02:46:35.745Z,4.77
2022-08-28T02:49:25.962Z,5.20
2022-08-28T02:52:21.754Z,4.67
2022-08-28T02:55:11.367Z,4.63
2022-08-28T02:58:00.207Z,5.00
2022-08-28T03:00:49.403Z,4.70
2022-08-28T03:03:39.529Z,4.13
2022-08-28T03:06:31.851Z,4.90
2022-08-28T03:09:20.699Z,5.50
2022-08-28T03:12:10.607Z,4.30
2022-08-28T03:14:59.438Z,5.17
2022-08-28T03:17:48.532Z,4.73
2022-08-28T03:20:39.302Z,4.80
2022-08-28T03:23:31.355Z,4.33
2022-08-28T03:26:21.219Z,4.30
2022-08-28T03:29:10.083Z,4.93
2022-08-28T03:31:59.439Z,4.83
2022-08-28T03:34:48.376Z,4.50
2022-08-28T03:37:37.691Z,4.80
2022-08-28T03:40:27.913Z,4.93
2022-08-28T03:43:17.825Z,4.37
2022-08-28T03:46:07.781Z,4.83
2022-08-28T03:48:56.830Z,4.80
2022-08-28T03:51:45.653Z,4.20
2022-08-28T03:54:34.559Z,4.80
2022-08-28T03:57:25.469Z,4.47
2022-08-28T04:00:14.989Z,4.23
2022-08-28T04:03:04.517Z,4.33
2022-08-28T04:05:53.630Z,4.83
2022-08-28T04:08:42.916Z,5.00
2022-08-28T04:11:31.744Z,4.70
2022-08-28T04:14:21.939Z,4.73
2022-08-28T04:17:11.207Z,4.43
2022-08-28T04:20:00.236Z,3.93
2022-08-28T04:22:49.114Z,5.10
2022-08-28T04:25:43.950Z,4.73
2022-08-28T04:28:32.807Z,4.57
2022-08-28T04:31:31.613Z,5.30
2022-08-28T04:34:21.630Z,4.73
2022-08-28T04:37:10.463Z,5.33
2022-08-28T04:39:59.310Z,5.33
2022-08-28T04:42:48.191Z,4.47
2022-08-28T04:45:40.576Z,4.10
2022-08-28T04:48:30.788Z,4.30
2022-08-28T04:51:20.485Z,3.90
2022-08-28T04:54:10.675Z,4.47
2022-08-28T04:56:59.495Z,5.03
2022-08-28T04:59:48.471Z,5.23
2022-08-28T05:02:38.531Z,4.40
2022-08-28T05:05:28.823Z,4.70
2022-08-28T05:08:19.349Z,3.73
2022-08-28T05:11:12.250Z,5.17
2022-08-28T05:14:01.073Z,4.63
2022-08-28T05:16:51.044Z,4.63
2022-08-28T05:19:39.870Z,4.77
2022-08-28T05:22:31.957Z,5.67
2022-08-28T05:25:20.815Z,5.20
2022-08-28T05:28:11.878Z,4.03
2022-08-28T05:31:09.821Z,4.40
2022-08-28T05:33:59.522Z,4.60
2022-08-28T05:36:48.797Z,3.80
2022-08-28T05:39:39.006Z,4.80
2022-08-28T05:42:30.685Z,5.17
2022-08-28T05:45:22.415Z,4.57
2022-08-28T05:48:12.001Z,4.20
2022-08-28T05:51:05.283Z,3.63
2022-08-28T05:53:54.627Z,3.87
2022-08-28T05:56:45.671Z,4.20
2022-08-28T05:59:34.482Z,4.30
2022-08-28T06:02:23.357Z,4.30
2022-08-28T06:05:13.297Z,4.37
2022-08-28T06:08:02.166Z,5.30
2022-08-28T06:10:51.138Z,4.33
2022-08-28T06:13:41.559Z,2.60
2022-08-28T06:16:31.237Z,2.90
2022-08-28T06:19:20.471Z,2.33
2022-08-28T06:22:12.037Z,4.10
2022-08-28T06:25:00.861Z,3.47
2022-08-28T06:27:49.676Z,3.10
2022-08-28T06:30:48.946Z,2.93
2022-08-28T06:33:49.558Z,2.70
2022-08-28T06:36:40.161Z,2.43
2022-08-28T06:39:29.127Z,2.23
2022-08-28T06:42:17.950Z,2.77
2022-08-28T06:45:07.291Z,2.53
2022-08-28T06:47:58.164Z,2.50
2022-08-28T06:50:47.910Z,2.57
2022-08-28T06:53:37.326Z,2.37
2022-08-28T06:56:27.245Z,2.70
2022-08-28T06:59:16.186Z,2.20
2022-08-28T07:02:06.391Z,2.40
2022-08-28T07:04:56.663Z,2.00
2022-08-28T07:07:45.494Z,1.90
2022-08-28T07:10:34.329Z,2.53
2022-08-28T07:13:23.219Z,2.40
2022-08-28T07:16:12.902Z,2.37
2022-08-28T07:19:04.731Z,2.57
2022-08-28T07:21:55.301Z,2.40
2022-08-28T07:24:44.198Z,2.07
2022-08-28T07:27:33.006Z,2.40
2022-08-28T07:30:21.962Z,1.57
2022-08-28T07:33:10.811Z,1.60
2022-08-28T07:35:59.737Z,2.30
2022-08-28T07:38:50.267Z,2.90
2022-08-28T07:41:42.533Z,2.90
2022-08-28T07:44:49.748Z,2.10
2022-08-28T07:47:38.683Z,2.53
2022-08-28T07:50:27.518Z,2.47
2022-08-28T07:53:16.373Z,2.67
2022-08-28T07:56:07.361Z,2.07
2022-08-28T07:58:56.718Z,2.80
2022-08-28T08:01:47.664Z,1.60
2022-08-28T08:04:36.602Z,2.07
2022-08-28T08:07:25.491Z,1.73
2022-08-28T08:10:14.802Z,2.07
2022-08-28T08:13:10.302Z,2.10
2022-08-28T08:16:02.534Z,1.75
2022-08-28T08:18:51.461Z,2.28
2022-08-28T08:21:40.272Z,2.30
2022-08-28T08:24:30.295Z,2.58
2022-08-28T08:27:19.113Z,2.30
2022-08-28T08:30:10.543Z,2.60
2022-08-28T08:32:59.360Z,2.30
2022-08-28T08:35:48.192Z,2.30
2022-08-28T08:38:37.401Z,2.03
2022-08-28T08:41:27.393Z,2.25
2022-08-28T08:44:23.386Z,3.15
2022-08-28T08:47:24.977Z,2.53
2022-08-28T08:50:17.699Z,2.25
2022-08-28T08:53:12.263Z,2.08
2022-08-28T08:56:03.170Z,2.50
2022-08-28T08:58:54.409Z,2.60
2022-08-28T09:01:45.978Z,2.50
2022-08-28T09:04:39.755Z,2.90
2022-08-28T09:07:31.825Z,2.78
2022-08-28T09:10:20.871Z,2.63
2022-08-28T09:13:15.935Z,3.05
2022-08-28T09:16:07.371Z,2.42
2022-08-28T09:18:58.274Z,2.13
2022-08-28T09:21:52.179Z,2.20
2022-08-28T09:24:41.854Z,2.20
2022-08-28T09:27:31.762Z,2.45
2022-08-28T09:30:30.580Z,2.35
2022-08-28T09:33:28.907Z,2.58
2022-08-28T09:36:23.728Z,2.33
2022-08-28T09:39:16.231Z,2.03
2022-08-28T09:42:29.767Z,1.83
2022-08-28T09:45:21.203Z,3.53
2022-08-28T09:48:19.510Z,2.30
2022-08-28T09:51:09.526Z,2.55
2022-08-28T09:54:01.279Z,2.72
2022-08-28T09:56:51.593Z,2.47
2022-08-28T09:59:42.129Z,2.30
2022-08-28T10:02:39.699Z,2.38
2022-08-28T10:05:35.172Z,2.42
2022-08-28T10:08:29.414Z,2.10
2022-08-28T10:11:21.405Z,2.13
2022-08-28T10:14:16.075Z,1.90
2022-08-28T10:17:08.293Z,2.63
2022-08-28T10:20:02.274Z,2.28
2022-08-28T10:22:53.835Z,1.90
2022-08-28T10:25:46.318Z,2.00
2022-08-28T10:28:39.758Z,2.40
2022-08-28T10:31:36.157Z,2.80
2022-08-28T10:34:36.599Z,2.22
2022-08-28T10:37:32.096Z,2.17
2022-08-28T10:40:24.818Z,2.85
2022-08-28T10:43:15.737Z,2.63
2022-08-28T10:46:06.564Z,2.40
2022-08-28T10:48:57.774Z,3.50
2022-08-28T10:51:48.154Z,2.38
2022-08-28T10:54:40.966Z,1.95
2022-08-28T10:57:39.252Z,2.53
2022-08-28T11:00:29.094Z,2.28
2022-08-28T11:03:33.967Z,2.10
2022-08-28T11:06:28.550Z,2.17
2022-08-28T11:09:27.362Z,2.65
2022-08-28T11:12:31.158Z,1.88
2022-08-28T11:15:38.522Z,2.83
2022-08-28T11:18:41.714Z,2.15
2022-08-28T11:21:33.565Z,2.10
2022-08-28T11:24:26.702Z,2.30
2022-08-28T11:27:25.704Z,2.47
2022-08-28T11:30:32.955Z,2.03
2022-08-28T11:33:39.056Z,2.25
2022-08-28T11:36:46.457Z,1.80
2022-08-28T11:39:36.747Z,2.30
2022-08-28T11:42:40.467Z,2.20
2022-08-28T11:45:57.636Z,2.00
2022-08-28T11:48:49.180Z,2.22
2022-08-28T11:51:56.935Z,1.88
2022-08-28T11:54:49.233Z,1.77
2022-08-28T11:57:47.339Z,2.25
2022-08-28T12:00:42.118Z,2.60
2022-08-28T12:03:33.710Z,2.20
2022-08-28T12:06:46.985Z,2.10
2022-08-28T12:09:43.827Z,1.90
2022-08-28T12:12:53.318Z,2.10
2022-08-28T12:15:43.583Z,1.77
2022-08-28T12:18:51.284Z,1.90
2022-08-28T12:21:42.620Z,1.98
2022-08-28T12:24:31.565Z,1.58
2022-08-28T12:27:20.890Z,1.73
2022-08-28T12:30:12.080Z,1.85
2022-08-28T12:33:04.627Z,1.40
2022-08-28T12:35:53.468Z,2.00
2022-08-28T12:38:42.529Z,6.78
2022-08-28T12:41:40.508Z,2.55
2022-08-28T12:44:32.035Z,1.98
2022-08-28T12:47:23.642Z,2.05
2022-08-28T12:50:21.998Z,1.85
2022-08-28T12:53:13.826Z,2.08
2022-08-28T12:56:03.059Z,1.90
2022-08-28T12:58:52.209Z,2.17
2022-08-28T13:01:41.571Z,1.77
2022-08-28T13:04:34.399Z,2.13
2022-08-28T13:07:26.919Z,3.92
2022-08-28T13:10:20.798Z,2.83
2022-08-28T13:13:11.803Z,2.35
2022-08-28T13:16:01.830Z,1.80
2022-08-28T13:18:52.702Z,2.15
2022-08-28T13:21:58.446Z,5.20
2022-08-28T13:24:48.812Z,1.77
2022-08-28T13:27:39.870Z,2.00
2022-08-28T13:30:30.026Z,1.80
2022-08-28T13:33:21.190Z,1.80
2022-08-28T13:36:23.921Z,2.28
2022-08-28T13:39:14.794Z,2.20
2022-08-28T13:42:07.751Z,2.20
2022-08-28T13:44:56.719Z,2.75
2022-08-28T13:47:45.570Z,3.10
2022-08-28T13:50:34.479Z,2.35
2022-08-28T13:53:23.319Z,2.55
2022-08-28T13:56:13.557Z,2.25
2022-08-28T13:59:02.378Z,1.83
2022-08-28T14:02:09.611Z,2.10
2022-08-28T14:04:58.459Z,1.80
2022-08-28T14:07:47.313Z,1.70
2022-08-28T14:10:36.135Z,1.77
2022-08-28T14:13:27.626Z,1.70
2022-08-28T14:16:16.778Z,1.60
2022-08-28T14:19:06.407Z,2.10
2022-08-28T14:21:55.446Z,1.92
2022-08-28T14:24:44.668Z,1.42
2022-08-28T14:27:33.694Z,1.67
2022-08-28T14:30:25.162Z,1.88
2022-08-28T14:33:15.343Z,1.63
2022-08-28T14:36:04.548Z,2.22
2022-08-28T14:38:54.533Z,1.80
2022-08-28T14:41:44.154Z,1.58
2022-08-28T14:44:33.070Z,1.42
2022-08-28T14:47:24.816Z,1.70
2022-08-28T14:50:13.730Z,1.80
2022-08-28T14:53:02.856Z,2.03
2022-08-28T14:55:51.763Z,1.90
2022-08-28T14:58:40.697Z,1.70
2022-08-28T15:01:39.634Z,1.63
2022-08-28T15:04:34.610Z,1.52
2022-08-28T15:07:23.586Z,1.95
2022-08-28T15:10:13.965Z,1.75
2022-08-28T15:13:02.779Z,1.52
2022-08-28T15:16:01.570Z,2.00
2022-08-28T15:18:50.419Z,1.90
2022-08-28T15:21:42.907Z,1.70
2022-08-28T15:24:34.295Z,1.63
2022-08-28T15:27:23.633Z,2.47
2022-08-28T15:30:12.720Z,1.52
2022-08-28T15:33:02.447Z,1.70
2022-08-28T15:35:51.256Z,1.30
2022-08-28T15:38:58.984Z,1.48
2022-08-28T15:41:47.848Z,1.45
2022-08-28T15:44:36.630Z,1.38
2022-08-28T15:47:25.527Z,2.58
2022-08-28T15:50:14.383Z,1.80
2022-08-28T15:53:03.297Z,1.50
2022-08-28T15:55:53.813Z,2.20
2022-08-28T15:58:43.036Z,1.55
2022-08-28T16:01:31.924Z,1.30
2022-08-28T16:04:20.774Z,1.38
2022-08-28T16:07:09.575Z,1.53
2022-08-28T16:09:58.501Z,1.30
2022-08-28T16:12:55.586Z,1.50
2022-08-28T16:15:46.550Z,1.60
2022-08-28T16:18:35.550Z,1.57
2022-08-28T16:21:24.351Z,1.13
2022-08-28T16:24:17.147Z,1.30
2022-08-28T16:27:08.688Z,1.87
2022-08-28T16:30:02.157Z,1.00
2022-08-28T16:32:50.990Z,1.30
2022-08-28T16:35:41.144Z,1.20
2022-08-28T16:38:37.181Z,1.37
2022-08-28T16:41:27.625Z,1.30
2022-08-28T16:44:17.731Z,1.73
2022-08-28T16:47:08.366Z,1.47
2022-08-28T16:49:57.769Z,1.30
2022-08-28T16:52:47.342Z,1.23
2022-08-28T16:55:37.012Z,1.57
2022-08-28T16:58:25.860Z,1.23
2022-08-28T17:01:15.225Z,2.33
2022-08-28T17:04:05.607Z,1.60
2022-08-28T17:06:54.427Z,1.77
2022-08-28T17:09:44.531Z,1.53
2022-08-28T17:12:34.048Z,1.20
2022-08-28T17:15:23.163Z,1.50
2022-08-28T17:18:12.293Z,1.43
2022-08-28T17:21:20.341Z,1.00
2022-08-28T17:24:09.613Z,1.47
2022-08-28T17:27:03.213Z,1.57
2022-08-28T17:29:54.142Z,1.37
2022-08-28T17:32:42.983Z,1.27
2022-08-28T17:35:31.815Z,1.40
2022-08-28T17:38:32.011Z,1.70
2022-08-28T17:41:20.849Z,1.50
2022-08-28T17:44:10.130Z,1.30
2022-08-28T17:46:59.049Z,1.57
2022-08-28T17:49:47.887Z,1.63
2022-08-28T17:52:36.923Z,1.30
2022-08-28T17:55:27.160Z,1.50
2022-08-28T17:58:15.982Z,1.40
2022-08-28T18:01:05.399Z,1.50
2022-08-28T18:03:55.281Z,1.90
2022-08-28T18:06:44.636Z,1.30
2022-08-28T18:09:33.472Z,1.63
2022-08-28T18:12:23.774Z,1.20
2022-08-28T18:15:13.544Z,1.70
2022-08-28T18:18:02.989Z,1.50
2022-08-28T18:20:51.876Z,1.70
2022-08-28T18:23:42.618Z,1.60
2022-08-28T18:26:31.578Z,2.50
2022-08-28T18:29:21.740Z,1.60
2022-08-28T18:32:10.602Z,1.87
2022-08-28T18:34:59.437Z,1.70
2022-08-28T18:37:48.248Z,2.13
2022-08-28T18:40:40.147Z,1.73
2022-08-28T18:43:29.173Z,1.90
2022-08-28T18:46:19.759Z,2.53
2022-08-28T18:49:08.618Z,2.20
2022-08-28T18:51:57.449Z,1.93
2022-08-28T18:54:46.359Z,1.70
2022-08-28T18:57:36.430Z,2.37
2022-08-28T19:00:25.423Z,1.73
2022-08-28T19:03:15.604Z,1.87
2022-08-28T19:06:06.142Z,2.00
2022-08-28T19:08:54.965Z,2.07
2022-08-28T19:11:43.785Z,1.53
2022-08-28T19:14:33.300Z,2.40
2022-08-28T19:17:22.235Z,2.03
2022-08-28T19:20:13.952Z,1.97
2022-08-28T19:23:03.017Z,1.37
2022-08-28T19:25:51.814Z,2.33
2022-08-28T19:28:41.529Z,2.30
2022-08-28T19:31:30.491Z,1.90
2022-08-28T19:34:20.978Z,2.20
2022-08-28T19:37:11.131Z,2.00
2022-08-28T19:40:00.142Z,2.10
2022-08-28T19:42:49.727Z,2.43
2022-08-28T19:45:38.684Z,2.17
2022-08-28T19:48:27.559Z,1.83
2022-08-28T19:51:22.372Z,2.80
2022-08-28T19:54:14.862Z,2.33
2022-08-28T19:57:03.681Z,2.80
2022-08-28T19:59:52.546Z,2.20
2022-08-28T20:02:41.444Z,1.60
2022-08-28T20:05:30.335Z,2.07
2022-08-28T20:08:19.913Z,2.10
2022-08-28T20:11:10.671Z,1.83
2022-08-28T20:14:03.752Z,1.93
2022-08-28T20:16:54.343Z,1.70
2022-08-28T20:19:43.186Z,2.07
2022-08-28T20:22:32.199Z,1.50
2022-08-28T20:25:21.167Z,1.50
2022-08-28T20:28:12.847Z,2.90
2022-08-28T20:31:01.945Z,1.80
2022-08-28T20:33:51.075Z,1.90
2022-08-28T20:36:39.953Z,1.80
2022-08-28T20:39:29.233Z,1.50
2022-08-28T20:42:18.046Z,1.57
2022-08-28T20:45:08.907Z,1.50
2022-08-28T20:47:57.750Z,1.50
2022-08-28T20:50:46.592Z,1.90
2022-08-28T20:53:37.830Z,1.83
2022-08-28T20:56:26.907Z,1.80
2022-08-28T20:59:21.044Z,1.47
2022-08-28T21:02:12.218Z,2.43
2022-08-28T21:05:01.100Z,1.77
2022-08-28T21:07:49.969Z,1.80
2022-08-28T21:10:39.521Z,1.47
2022-08-28T21:13:28.395Z,1.60
2022-08-28T21:16:17.255Z,1.33
2022-08-28T21:19:16.007Z,1.53
2022-08-28T21:22:06.082Z,1.50
2022-08-28T21:24:54.940Z,1.50
2022-08-28T21:27:44.150Z,1.97
2022-08-28T21:30:33.167Z,1.90
2022-08-28T21:33:22.110Z,1.40
2022-08-28T21:36:13.610Z,1.73
2022-08-28T21:39:02.840Z,1.50
2022-08-28T21:41:51.732Z,1.70
2022-08-28T21:44:40.850Z,1.50
2022-08-28T21:47:40.731Z,1.50
2022-08-28T21:50:29.593Z,1.53
2022-08-28T21:53:19.887Z,1.87
2022-08-28T21:56:09.749Z,1.57
2022-08-28T21:58:58.588Z,1.80
2022-08-28T22:01:47.561Z,1.30
2022-08-28T22:04:36.671Z,1.53
2022-08-28T22:07:25.874Z,1.60
2022-08-28T22:10:16.076Z,1.97
2022-08-28T22:13:05.071Z,2.10
2022-08-28T22:15:53.891Z,1.60
2022-08-28T22:18:42.682Z,1.90
2022-08-28T22:21:49.110Z,1.90
2022-08-28T22:24:38.180Z,1.70
2022-08-28T22:27:28.393Z,1.63
2022-08-28T22:30:17.690Z,2.03
2022-08-28T22:33:06.513Z,1.77
2022-08-28T22:35:55.356Z,1.90
2022-08-28T22:38:46.980Z,1.80
2022-08-28T22:41:41.672Z,2.07
2022-08-28T22:44:31.866Z,1.80
2022-08-28T22:47:20.716Z,1.80
2022-08-28T22:50:09.880Z,1.80
2022-08-28T22:52:58.715Z,1.87
2022-08-28T22:55:47.569Z,1.80
2022-08-28T22:58:36.651Z,2.10
2022-08-28T23:01:27.447Z,1.87
2022-08-28T23:04:16.969Z,1.80
2022-08-28T23:07:06.308Z,1.67
2022-08-28T23:09:55.544Z,1.83
2022-08-28T23:12:44.423Z,2.20
2022-08-28T23:15:33.732Z,1.90
2022-08-28T23:18:24.006Z,1.50
2022-08-28T23:21:12.847Z,2.13
2022-08-28T23:24:01.703Z,1.77
2022-08-28T23:26:50.558Z,1.90
2022-08-28T23:29:39.738Z,1.87
2022-08-28T23:32:28.556Z,2.50
2022-08-28T23:35:19.646Z,2.00
2022-08-28T23:38:08.517Z,2.07
2022-08-28T23:40:58.509Z,1.80
2022-08-28T23:43:47.453Z,2.57
2022-08-28T23:46:36.940Z,2.23
2022-08-28T23:49:30.617Z,2.40
2022-08-28T23:52:21.147Z,1.63
2022-08-28T23:55:11.585Z,2.03
2022-08-28T23:58:00.410Z,1.80
